Sonderborg, Denmark
Current Conditions -  °F | °C
As of 9:57 PM on Friday 28 Nov 2014 (Local Time) from EKSB Reporting Station
Broken Clouds Broken Clouds  
Wind Chill: 25°   Ceiling: 2200
Heat Index: 37°   Visibility: 6mi
Dew Point: 30°   Wind: 28mph
Humidity: 75%   Direction: 100°E
Pressure: 30.18"   Gusts: NA
Location:  54.96°N, 9.79°E
Report Text: EKSB 282057Z 10024KT 9999 BKN022 03/M01 Q1022
Loading
Personal Weather Stations






























Interactive Weather Map New forecast layout! Learn more

10-Day Weather Forecast

Advertisements
Track Severe Weather on mobile